createdAt,value
2023-05-06T00:01:15.873Z,100998.53
2023-05-06T00:03:43.629Z,100988.25
2023-05-06T00:06:11.597Z,100996.44
2023-05-06T00:08:40.613Z,100997.50
2023-05-06T00:11:08.348Z,100991.25
2023-05-06T00:13:37.472Z,100991.22
2023-05-06T00:16:05.566Z,100991.59
2023-05-06T00:18:33.357Z,100989.72
2023-05-06T00:21:00.995Z,100979.69
2023-05-06T00:23:28.523Z,100993.28
2023-05-06T00:25:57.524Z,100980.91
2023-05-06T00:28:25.225Z,100983.81
2023-05-06T00:30:52.808Z,100979.38
2023-05-06T00:33:20.372Z,100976.66
2023-05-06T00:35:48.234Z,100980.44
2023-05-06T00:38:16.891Z,100974.38
2023-05-06T00:40:44.500Z,100982.16
2023-05-06T00:43:13.515Z,100991.16
2023-05-06T00:45:41.411Z,100993.25
2023-05-06T00:48:11.800Z,100994.09
2023-05-06T00:50:41.408Z,100997.03
2023-05-06T00:53:10.518Z,100992.25
2023-05-06T00:55:39.432Z,100996.44
2023-05-06T00:58:07.404Z,101002.97
2023-05-06T01:00:36.661Z,100995.44
2023-05-06T01:03:04.621Z,100993.13
2023-05-06T01:05:37.567Z,101002.53
2023-05-06T01:08:13.962Z,100997.72
2023-05-06T01:10:48.684Z,100993.50
2023-05-06T01:13:22.796Z,100991.81
2023-05-06T01:15:55.358Z,100991.59
2023-05-06T01:18:28.049Z,100989.13
2023-05-06T01:20:56.808Z,100990.84
2023-05-06T01:23:25.839Z,100992.47
2023-05-06T01:25:53.496Z,100991.22
2023-05-06T01:28:21.304Z,100991.63
2023-05-06T01:30:56.509Z,100995.03
2023-05-06T01:33:33.228Z,100991.94
2023-05-06T01:36:10.106Z,100998.59
2023-05-06T01:38:47.022Z,100999.06
2023-05-06T01:41:16.869Z,100987.56
2023-05-06T01:43:46.346Z,100996.16
2023-05-06T01:46:18.105Z,100990.88
2023-05-06T01:48:53.470Z,100991.09
2023-05-06T01:51:22.267Z,100998.25
2023-05-06T01:53:51.196Z,101001.59
2023-05-06T01:56:18.831Z,100998.88
2023-05-06T01:58:46.431Z,100999.75
2023-05-06T02:01:14.083Z,100996.16
2023-05-06T02:03:41.832Z,100993.03
2023-05-06T02:06:09.490Z,100995.34
2023-05-06T02:08:37.136Z,100997.47
2023-05-06T02:11:06.152Z,100993.28
2023-05-06T02:13:33.908Z,100986.38
2023-05-06T02:16:02.262Z,100994.56
2023-05-06T02:18:29.948Z,100994.56
2023-05-06T02:20:57.561Z,100987.22
2023-05-06T02:23:25.394Z,100994.34
2023-05-06T02:25:53.091Z,100984.72
2023-05-06T02:28:22.096Z,100992.03
2023-05-06T02:30:49.632Z,100992.06
2023-05-06T02:33:17.284Z,100983.50
2023-05-06T02:35:45.046Z,100995.00
2023-05-06T02:38:12.666Z,100997.28
2023-05-06T02:40:42.965Z,100997.09
2023-05-06T02:43:10.719Z,101002.13
2023-05-06T02:45:39.850Z,100999.81
2023-05-06T02:48:07.620Z,101004.66
2023-05-06T02:50:36.297Z,100996.91
2023-05-06T02:53:04.939Z,101005.06
2023-05-06T02:55:32.552Z,100990.78
2023-05-06T02:58:00.176Z,100999.97
2023-05-06T03:00:27.849Z,100999.78
2023-05-06T03:02:56.808Z,100998.13
2023-05-06T03:05:24.446Z,100994.78
2023-05-06T03:07:52.410Z,100995.63
2023-05-06T03:10:20.325Z,100988.50
2023-05-06T03:12:47.966Z,101002.31
2023-05-06T03:15:15.526Z,100996.44
2023-05-06T03:17:43.170Z,100993.28
2023-05-06T03:20:13.502Z,100999.34
2023-05-06T03:22:42.164Z,100993.28
2023-05-06T03:25:10.478Z,100996.63
2023-05-06T03:27:38.244Z,101000.00
2023-05-06T03:30:06.515Z,100988.88
2023-05-06T03:32:34.194Z,100997.88
2023-05-06T03:35:01.820Z,100996.00
2023-05-06T03:37:31.411Z,100996.19
2023-05-06T03:40:00.616Z,100997.06
2023-05-06T03:42:28.235Z,101001.25
2023-05-06T03:44:55.768Z,100997.28
2023-05-06T03:47:23.447Z,101009.41
2023-05-06T03:49:51.116Z,101000.19
2023-05-06T03:52:19.089Z,101007.75
2023-05-06T03:54:48.074Z,101000.22
2023-05-06T03:57:15.793Z,101003.56
2023-05-06T03:59:43.411Z,101003.16
2023-05-06T04:02:11.053Z,101011.97
2023-05-06T04:04:38.647Z,101011.13
2023-05-06T04:07:06.295Z,101012.59
2023-05-06T04:09:33.964Z,101006.31
2023-05-06T04:12:03.665Z,101006.72
2023-05-06T04:14:31.406Z,101011.94
2023-05-06T04:16:59.023Z,101012.81
2023-05-06T04:19:26.824Z,101024.31
2023-05-06T04:21:54.535Z,101025.56
2023-05-06T04:24:22.932Z,101021.19
2023-05-06T04:26:50.541Z,101033.09
2023-05-06T04:29:19.529Z,101035.81
2023-05-06T04:31:47.239Z,101035.41
2023-05-06T04:34:16.508Z,101045.03
2023-05-06T04:36:44.212Z,101034.56
2023-05-06T04:39:11.797Z,101032.22
2023-05-06T04:41:39.501Z,101034.50
2023-05-06T04:44:07.332Z,101034.94
2023-05-06T04:46:36.270Z,101025.31
2023-05-06T04:49:03.928Z,101038.31
2023-05-06T04:51:31.878Z,101036.88
2023-05-06T04:53:59.608Z,101035.41
2023-05-06T04:56:27.211Z,101034.75
2023-05-06T04:58:54.801Z,101033.09
2023-05-06T05:01:22.487Z,101039.59
2023-05-06T05:03:51.443Z,101052.53
2023-05-06T05:06:19.047Z,101043.56
2023-05-06T05:08:46.709Z,101047.53
2023-05-06T05:11:14.417Z,101039.81
2023-05-06T05:13:41.963Z,101043.78
2023-05-06T05:16:09.588Z,101039.16
2023-05-06T05:18:37.319Z,101036.22
2023-05-06T05:21:06.489Z,101037.91
2023-05-06T05:23:34.145Z,101034.38
2023-05-06T05:26:04.370Z,101038.75
2023-05-06T05:28:32.161Z,101047.09
2023-05-06T05:31:02.934Z,101056.34
2023-05-06T05:33:30.769Z,101065.53
2023-05-06T05:35:58.742Z,101068.91
2023-05-06T05:38:27.718Z,101069.72
2023-05-06T05:40:55.446Z,101068.91
2023-05-06T05:43:25.896Z,101082.06
2023-05-06T05:45:54.835Z,101082.69
2023-05-06T05:48:23.870Z,101075.78
2023-05-06T05:50:51.568Z,101083.94
2023-05-06T05:53:19.310Z,101084.38
2023-05-06T05:55:48.286Z,101091.91
2023-05-06T05:58:16.187Z,101087.72
2023-05-06T06:00:43.813Z,101088.34
2023-05-06T06:03:11.593Z,101076.41
2023-05-06T06:05:39.559Z,101081.44
2023-05-06T06:08:07.400Z,101070.13
2023-05-06T06:10:34.992Z,101077.66
2023-05-06T06:13:04.081Z,101082.28
2023-05-06T06:15:31.788Z,101080.38
2023-05-06T06:17:59.469Z,101093.97
2023-05-06T06:20:27.196Z,101097.78
2023-05-06T06:22:54.868Z,101093.97
2023-05-06T06:25:22.479Z,101095.66
2023-05-06T06:27:50.080Z,101107.81
2023-05-06T06:30:19.028Z,101111.56
2023-05-06T06:32:51.701Z,101100.06
2023-05-06T06:35:20.144Z,101106.13
2023-05-06T06:37:48.035Z,101097.34
2023-05-06T06:40:16.311Z,101101.75
2023-05-06T06:42:44.052Z,101106.97
2023-05-06T06:45:14.492Z,101114.09
2023-05-06T06:47:43.613Z,101110.31
2023-05-06T06:50:12.231Z,101116.34
2023-05-06T06:52:39.930Z,101118.88
2023-05-06T06:55:09.060Z,101127.06
2023-05-06T06:57:37.532Z,101117.63
2023-05-06T07:00:05.583Z,101123.66
2023-05-06T07:02:33.270Z,101128.91
2023-05-06T07:05:02.199Z,101122.22
2023-05-06T07:07:30.088Z,101118.41
2023-05-06T07:09:58.634Z,101125.94
2023-05-06T07:12:26.796Z,101124.50
2023-05-06T07:14:54.582Z,101122.59
2023-05-06T07:17:22.300Z,101128.28
2023-05-06T07:19:50.007Z,101131.63
2023-05-06T07:22:19.425Z,101135.00
2023-05-06T07:24:47.124Z,101136.66
2023-05-06T07:27:14.718Z,101134.59
2023-05-06T07:29:42.347Z,101136.03
2023-05-06T07:32:10.283Z,101137.50
2023-05-06T07:34:38.073Z,101138.13
2023-05-06T07:37:07.875Z,101143.34
2023-05-06T07:39:36.797Z,101145.84
2023-05-06T07:42:05.026Z,101144.13
2023-05-06T07:44:34.081Z,101147.94
2023-05-06T07:47:01.718Z,101146.91
2023-05-06T07:49:31.425Z,101143.94
2023-05-06T07:51:59.294Z,101153.59
2023-05-06T07:54:27.089Z,101155.91
2023-05-06T07:56:56.105Z,101156.53
2023-05-06T07:59:23.998Z,101155.94
2023-05-06T08:01:51.684Z,101159.66
2023-05-06T08:04:19.321Z,101162.13
2023-05-06T08:06:47.134Z,101153.78
2023-05-06T08:09:22.246Z,101152.94
2023-05-06T08:11:50.733Z,101163.88
2023-05-06T08:14:19.690Z,101163.84
2023-05-06T08:16:47.628Z,101163.81
2023-05-06T08:19:15.907Z,101164.84
2023-05-06T08:21:43.485Z,101167.34
2023-05-06T08:24:13.509Z,101179.34
2023-05-06T08:26:41.711Z,101171.38
2023-05-06T08:29:09.403Z,101175.16
2023-05-06T08:31:38.427Z,101176.63
2023-05-06T08:34:06.502Z,101173.06
2023-05-06T08:36:34.191Z,101184.38
2023-05-06T08:39:01.756Z,101184.38
2023-05-06T08:41:31.323Z,101180.59
2023-05-06T08:44:01.863Z,101188.91
2023-05-06T08:46:30.929Z,101188.00
2023-05-06T08:49:00.056Z,101181.25
2023-05-06T08:51:31.513Z,101183.53
2023-05-06T08:54:01.623Z,101175.38
2023-05-06T08:56:33.585Z,101179.56
2023-05-06T08:59:01.658Z,101180.44
2023-05-06T09:01:29.953Z,101191.13
2023-05-06T09:03:58.842Z,101183.94
2023-05-06T09:06:27.801Z,101187.94
2023-05-06T09:08:55.449Z,101187.03
2023-05-06T09:11:24.964Z,101187.84
2023-05-06T09:14:07.772Z,101181.25
2023-05-06T09:16:35.677Z,101185.66
2023-05-06T09:19:03.653Z,101199.31
2023-05-06T09:21:35.669Z,101203.03
2023-05-06T09:24:04.995Z,101195.69
2023-05-06T09:26:33.695Z,101201.09
2023-05-06T09:29:02.028Z,101198.97
2023-05-06T09:31:30.160Z,101196.19
2023-05-06T09:34:00.333Z,101185.94
2023-05-06T09:36:29.167Z,101189.75
2023-05-06T09:38:58.242Z,101188.53
2023-05-06T09:41:26.691Z,101187.31
2023-05-06T09:43:55.581Z,101191.72
2023-05-06T09:46:24.345Z,101191.28
2023-05-06T09:48:53.234Z,101193.81
2023-05-06T09:51:21.050Z,101198.44
2023-05-06T09:53:49.474Z,101198.28
2023-05-06T09:56:18.845Z,101200.56
2023-05-06T09:58:46.949Z,101204.75
2023-05-06T10:01:25.192Z,101192.81
2023-05-06T10:04:04.794Z,101192.53
2023-05-06T10:06:35.584Z,101201.09
2023-05-06T10:09:03.592Z,101200.44
2023-05-06T10:11:33.309Z,101199.59
2023-05-06T10:14:01.260Z,101189.59
2023-05-06T10:16:29.419Z,101199.22
2023-05-06T10:18:57.349Z,101190.81
2023-05-06T10:21:27.398Z,101193.75
2023-05-06T10:24:01.883Z,101186.97
2023-05-06T10:26:31.363Z,101184.66
2023-05-06T10:29:02.637Z,101200.00
2023-05-06T10:31:31.867Z,101189.41
2023-05-06T10:34:04.042Z,101179.78
2023-05-06T10:36:36.219Z,101184.59
2023-05-06T10:39:04.839Z,101183.41
2023-05-06T10:41:33.284Z,101181.97
2023-05-06T10:44:02.198Z,101178.47
2023-05-06T10:46:30.668Z,101180.22
2023-05-06T10:49:18.289Z,101189.88
2023-05-06T10:51:46.829Z,101179.28
2023-05-06T10:54:23.716Z,101174.78
2023-05-06T10:57:10.250Z,101174.72
2023-05-06T10:59:46.410Z,101181.41
2023-05-06T11:02:15.352Z,101174.97
2023-05-06T11:04:43.116Z,101173.44
2023-05-06T11:07:12.309Z,101180.94
2023-05-06T11:09:56.236Z,101173.72
2023-05-06T11:12:48.914Z,101175.81
2023-05-06T11:15:24.775Z,101172.91
2023-05-06T11:17:54.038Z,101179.66
2023-05-06T11:20:23.871Z,101186.41
2023-05-06T11:22:51.904Z,101178.22
2023-05-06T11:25:41.517Z,101183.25
2023-05-06T11:28:11.474Z,101183.66
2023-05-06T11:30:43.359Z,101186.16
2023-05-06T11:33:18.628Z,101185.22
2023-05-06T11:35:46.302Z,101182.19
2023-05-06T11:38:13.926Z,101177.63
2023-05-06T11:40:42.508Z,101184.50
2023-05-06T11:43:11.191Z,101181.59
2023-05-06T11:45:44.563Z,101181.59
2023-05-06T11:48:13.073Z,101184.72
2023-05-06T11:50:45.533Z,101195.88
2023-05-06T11:53:13.167Z,101191.16
2023-05-06T11:55:40.820Z,101189.63
2023-05-06T11:58:13.768Z,101186.81
2023-05-06T12:00:51.421Z,101188.00
2023-05-06T12:03:19.788Z,101193.69
2023-05-06T12:05:48.682Z,101179.81
2023-05-06T12:08:26.896Z,101185.06
2023-05-06T12:10:57.172Z,101187.84
2023-05-06T12:13:24.936Z,101188.91
2023-05-06T12:15:55.711Z,101202.38
2023-05-06T12:18:24.063Z,101192.06
2023-05-06T12:20:54.566Z,101189.16
2023-05-06T12:23:22.641Z,101187.28
2023-05-06T12:26:02.029Z,101202.94
2023-05-06T12:28:29.997Z,101200.34
2023-05-06T12:30:59.167Z,101195.09
2023-05-06T12:33:26.792Z,101194.47
2023-05-06T12:35:57.045Z,101191.66
2023-05-06T12:38:25.011Z,101193.69
2023-05-06T12:40:55.259Z,101196.28
2023-05-06T12:43:30.345Z,101191.34
2023-05-06T12:46:07.364Z,101195.78
2023-05-06T12:48:35.418Z,101194.53
2023-05-06T12:51:18.390Z,101191.22
2023-05-06T12:53:46.058Z,101193.72
2023-05-06T12:56:13.933Z,101190.88
2023-05-06T12:58:41.539Z,101193.72
2023-05-06T13:01:10.500Z,101197.50
2023-05-06T13:03:40.678Z,101201.72
2023-05-06T13:06:08.424Z,101192.41
2023-05-06T13:08:36.091Z,101186.88
2023-05-06T13:11:03.750Z,101182.03
2023-05-06T13:13:31.455Z,101192.75
2023-05-06T13:15:59.370Z,101190.13
2023-05-06T13:18:28.324Z,101194.50
2023-05-06T13:20:55.949Z,101184.44
2023-05-06T13:23:23.627Z,101178.06
2023-05-06T13:26:03.602Z,101185.53
2023-05-06T13:28:33.500Z,101183.06
2023-05-06T13:31:01.360Z,101186.31
2023-05-06T13:33:31.689Z,101188.59
2023-05-06T13:35:59.356Z,101175.63
2023-05-06T13:38:28.101Z,101180.22
2023-05-06T13:40:56.016Z,101172.31
2023-05-06T13:43:25.448Z,101174.47
2023-05-06T13:45:53.743Z,101177.63
2023-05-06T13:48:21.396Z,101167.72
2023-05-06T13:50:50.491Z,101172.38
2023-05-06T13:53:18.261Z,101172.84
2023-05-06T13:55:46.532Z,101172.28
2023-05-06T13:58:14.153Z,101166.47
2023-05-06T14:00:41.770Z,101156.56
2023-05-06T14:03:09.555Z,101157.72
2023-05-06T14:05:37.406Z,101155.91
2023-05-06T14:08:08.451Z,101158.13
2023-05-06T14:10:36.092Z,101152.72
2023-05-06T14:13:06.764Z,101144.56
2023-05-06T14:15:34.789Z,101146.25
2023-05-06T14:18:02.807Z,101146.34
2023-05-06T14:20:30.583Z,101145.97
2023-05-06T14:22:58.228Z,101137.25
2023-05-06T14:25:27.923Z,101137.66
2023-05-06T14:27:56.153Z,101131.13
2023-05-06T14:30:25.636Z,101126.63
2023-05-06T14:32:53.411Z,101128.13
2023-05-06T14:35:21.164Z,101124.47
2023-05-06T14:37:48.779Z,101125.25
2023-05-06T14:40:17.068Z,101120.97
2023-05-06T14:42:46.735Z,101121.72
2023-05-06T14:45:15.710Z,101112.41
2023-05-06T14:47:43.919Z,101117.53
2023-05-06T14:50:12.757Z,101115.38
2023-05-06T14:52:41.935Z,101113.28
2023-05-06T14:55:11.905Z,101114.56
2023-05-06T14:57:39.842Z,101117.38
2023-05-06T15:00:10.105Z,101116.03
2023-05-06T15:02:40.495Z,101114.13
2023-05-06T15:05:09.968Z,101118.75
2023-05-06T15:07:37.848Z,101121.16
2023-05-06T15:10:06.237Z,101115.41
2023-05-06T15:12:34.690Z,101117.34
2023-05-06T15:15:02.498Z,101113.22
2023-05-06T15:17:31.490Z,101116.56
2023-05-06T15:19:59.291Z,101111.63
2023-05-06T15:22:27.088Z,101110.78
2023-05-06T15:24:54.693Z,101099.78
2023-05-06T15:27:22.228Z,101111.06
2023-05-06T15:29:49.897Z,101114.34
2023-05-06T15:32:17.585Z,101107.84
2023-05-06T15:34:46.577Z,101115.44
2023-05-06T15:37:15.835Z,101113.16
2023-05-06T15:39:43.535Z,101107.81
2023-05-06T15:42:11.183Z,101093.06
2023-05-06T15:44:38.745Z,101109.19
2023-05-06T15:47:06.404Z,101111.00
2023-05-06T15:49:52.119Z,101104.44
2023-05-06T15:52:23.566Z,101107.09
2023-05-06T15:54:51.609Z,101109.72
2023-05-06T15:57:20.374Z,101106.88
2023-05-06T15:59:47.985Z,101117.72
2023-05-06T16:04:46.494Z,101111.16
2023-05-06T16:07:14.338Z,101112.59
2023-05-06T16:09:44.236Z,101112.69
2023-05-06T16:12:12.016Z,101115.28
2023-05-06T16:14:39.565Z,101125.66
2023-05-06T16:17:07.137Z,101116.09
2023-05-06T16:19:34.769Z,101118.19
2023-05-06T16:22:02.528Z,101112.59
2023-05-06T16:24:30.164Z,101121.06
2023-05-06T16:26:59.106Z,101117.47
2023-05-06T16:29:27.675Z,101119.88
2023-05-06T16:31:55.448Z,101122.66
2023-05-06T16:34:23.279Z,101121.91
2023-05-06T16:36:51.217Z,101120.84
2023-05-06T16:39:18.944Z,101118.13
2023-05-06T16:41:47.051Z,101114.22
2023-05-06T16:44:16.052Z,101123.16
2023-05-06T16:46:43.699Z,101124.13
2023-05-06T16:49:11.258Z,101124.47
2023-05-06T16:51:38.862Z,101125.19
2023-05-06T16:54:06.555Z,101124.25
2023-05-06T16:56:44.503Z,101132.25
2023-05-06T16:59:20.770Z,101122.47
2023-05-06T17:01:49.559Z,101120.31
2023-05-06T17:04:17.203Z,101123.88
2023-05-06T17:06:44.856Z,101134.47
2023-05-06T17:09:12.955Z,101129.13
2023-05-06T17:11:40.652Z,101136.88
2023-05-06T17:14:08.333Z,101135.41
2023-05-06T17:16:37.359Z,101132.63
2023-05-06T17:19:05.401Z,101134.53
2023-05-06T17:21:33.116Z,101136.34
2023-05-06T17:24:00.853Z,101147.16
2023-05-06T17:26:28.586Z,101143.09
2023-05-06T17:28:57.090Z,101145.72
2023-05-06T17:31:24.898Z,101151.91
2023-05-06T17:33:54.166Z,101158.53
2023-05-06T17:36:21.996Z,101155.44
2023-05-06T17:38:49.954Z,101153.13
2023-05-06T17:41:17.682Z,101159.56
2023-05-06T17:43:47.557Z,101167.09
2023-05-06T17:46:16.852Z,101173.41
2023-05-06T17:48:46.168Z,101171.84
2023-05-06T17:51:15.080Z,101175.75
2023-05-06T17:53:43.091Z,101179.75
2023-05-06T17:56:11.127Z,101175.97
2023-05-06T17:58:39.094Z,101194.53
2023-05-06T18:01:07.087Z,101188.50
2023-05-06T18:03:35.079Z,101191.28
2023-05-06T18:06:02.762Z,101195.69
2023-05-06T18:08:31.888Z,101199.81
2023-05-06T18:11:00.059Z,101205.50
2023-05-06T18:13:27.777Z,101211.84
2023-05-06T18:15:55.875Z,101215.53
2023-05-06T18:18:27.717Z,101224.16
2023-05-06T18:20:56.825Z,101213.53
2023-05-06T18:23:26.575Z,101222.75
2023-05-06T18:25:56.625Z,101228.81
2023-05-06T18:28:25.344Z,101224.22
2023-05-06T18:30:53.283Z,101231.31
2023-05-06T18:33:21.715Z,101238.69
2023-05-06T18:35:49.683Z,101245.44
2023-05-06T18:38:17.646Z,101239.66
2023-05-06T18:40:47.252Z,101243.34
2023-05-06T18:43:16.531Z,101251.88
2023-05-06T18:45:44.375Z,101248.31
2023-05-06T18:48:12.170Z,101251.59
2023-05-06T18:50:39.986Z,101255.84
2023-05-06T18:53:07.951Z,101257.38
2023-05-06T18:55:36.922Z,101252.56
2023-05-06T18:58:05.752Z,101264.44
2023-05-06T19:00:35.875Z,101273.31
2023-05-06T19:03:03.740Z,101278.31
2023-05-06T19:05:31.519Z,101280.81
2023-05-06T19:07:59.171Z,101275.53
2023-05-06T19:10:27.261Z,101280.00
2023-05-06T19:12:55.039Z,101270.56
2023-05-06T19:15:23.010Z,101282.09
2023-05-06T19:17:52.005Z,101287.56
2023-05-06T19:20:20.126Z,101293.66
2023-05-06T19:22:47.924Z,101290.47
2023-05-06T19:25:15.650Z,101300.50
2023-05-06T19:27:43.634Z,101290.06
2023-05-06T19:30:12.030Z,101298.44
2023-05-06T19:32:40.327Z,101297.41
2023-05-06T19:35:10.914Z,101305.97
2023-05-06T19:37:39.588Z,101299.25
2023-05-06T19:40:08.956Z,101301.63
2023-05-06T19:42:36.669Z,101303.06
2023-05-06T19:45:08.155Z,101308.50
2023-05-06T19:47:36.225Z,101307.38
2023-05-06T19:50:03.977Z,101319.34
2023-05-06T19:52:34.825Z,101319.03
2023-05-06T19:55:03.207Z,101317.13
2023-05-06T19:57:31.881Z,101321.28
2023-05-06T19:59:59.732Z,101317.34
2023-05-06T20:02:27.835Z,101323.41
2023-05-06T20:04:55.871Z,101319.06
2023-05-06T20:07:23.682Z,101317.25
2023-05-06T20:09:55.548Z,101313.22
2023-05-06T20:12:23.523Z,101313.44
2023-05-06T20:14:51.165Z,101316.00
2023-05-06T20:17:20.411Z,101316.66
2023-05-06T20:19:48.272Z,101327.34
2023-05-06T20:22:16.991Z,101319.78
2023-05-06T20:24:45.297Z,101319.91
2023-05-06T20:27:14.414Z,101318.53
2023-05-06T20:29:42.701Z,101322.19
2023-05-06T20:32:10.461Z,101313.88
2023-05-06T20:34:38.309Z,101321.72
2023-05-06T20:37:06.604Z,101325.97
2023-05-06T20:39:34.166Z,101318.34
2023-05-06T20:42:01.877Z,101319.44
2023-05-06T20:44:30.845Z,101321.91
2023-05-06T20:46:58.418Z,101321.53
2023-05-06T20:49:26.241Z,101336.28
2023-05-06T20:51:53.948Z,101333.63
2023-05-06T20:54:21.578Z,101328.06
2023-05-06T20:56:49.382Z,101328.13
2023-05-06T20:59:17.074Z,101326.25
2023-05-06T21:01:46.249Z,101335.44
2023-05-06T21:04:14.395Z,101327.31
2023-05-06T21:06:41.959Z,101329.66
2023-05-06T21:09:09.827Z,101335.78
2023-05-06T21:11:37.425Z,101341.06
2023-05-06T21:14:05.424Z,101335.53
2023-05-06T21:16:33.131Z,101339.25
2023-05-06T21:19:02.254Z,101337.16
2023-05-06T21:21:32.712Z,101344.38
2023-05-06T21:24:01.626Z,101345.41
2023-05-06T21:26:31.651Z,101332.56
2023-05-06T21:28:59.328Z,101335.91
2023-05-06T21:31:30.063Z,101345.09
2023-05-06T21:33:59.598Z,101344.53
2023-05-06T21:36:28.575Z,101350.91
2023-05-06T21:39:11.863Z,101336.56
2023-05-06T21:41:39.980Z,101345.66
2023-05-06T21:44:09.080Z,101333.59
2023-05-06T21:46:37.734Z,101333.88
2023-05-06T21:49:05.638Z,101338.38
2023-05-06T21:51:37.928Z,101335.66
2023-05-06T21:54:05.668Z,101335.94
2023-05-06T21:56:33.513Z,101331.38
2023-05-06T21:59:01.250Z,101339.19
2023-05-06T22:01:29.131Z,101341.63
2023-05-06T22:03:57.092Z,101336.72
2023-05-06T22:06:24.870Z,101343.25
2023-05-06T22:08:53.943Z,101343.94
2023-05-06T22:11:22.878Z,101339.28
2023-05-06T22:13:50.588Z,101336.72
2023-05-06T22:16:19.079Z,101340.34
2023-05-06T22:18:47.371Z,101343.06
2023-05-06T22:21:15.110Z,101337.44
2023-05-06T22:23:42.807Z,101333.81
2023-05-06T22:26:11.789Z,101341.13
2023-05-06T22:28:39.385Z,101339.53
2023-05-06T22:31:07.047Z,101346.03
2023-05-06T22:33:34.772Z,101345.63
2023-05-06T22:36:03.210Z,101341.63
2023-05-06T22:38:31.332Z,101344.88
2023-05-06T22:40:58.968Z,101343.03
2023-05-06T22:43:28.692Z,101346.66
2023-05-06T22:45:56.794Z,101345.03
2023-05-06T22:48:25.118Z,101350.81
2023-05-06T22:50:53.701Z,101343.31
2023-05-06T22:53:21.259Z,101344.59
2023-05-06T22:55:48.848Z,101346.75
2023-05-06T22:58:16.964Z,101358.25
2023-05-06T23:00:47.758Z,101356.75
2023-05-06T23:03:18.010Z,101349.75
2023-05-06T23:05:45.723Z,101354.81
2023-05-06T23:08:13.302Z,101349.78
2023-05-06T23:10:41.375Z,101353.34
2023-05-06T23:13:09.219Z,101358.41
2023-05-06T23:15:37.206Z,101355.81
2023-05-06T23:18:06.641Z,101360.16
2023-05-06T23:20:34.390Z,101363.84
2023-05-06T23:23:02.097Z,101364.41
2023-05-06T23:25:29.730Z,101363.47
2023-05-06T23:27:57.313Z,101366.25
2023-05-06T23:30:25.054Z,101360.25
2023-05-06T23:32:52.746Z,101362.97
2023-05-06T23:35:21.851Z,101357.94
2023-05-06T23:37:49.524Z,101361.41
2023-05-06T23:40:17.114Z,101366.72
2023-05-06T23:42:44.795Z,101361.66
2023-05-06T23:45:12.716Z,101368.41
2023-05-06T23:47:41.030Z,101370.75
2023-05-06T23:50:09.699Z,101369.53
2023-05-06T23:52:39.398Z,101373.19
2023-05-06T23:55:07.799Z,101374.88
2023-05-06T23:57:35.575Z,101373.09
